Time,TemperatureF,DewpointF,PressureIn,WindDirection,WindDirectionDegrees,WindSpeedMPH,WindSpeedGustMPH,Humidity,HourlyPrecipIn,Conditions,Clouds,dailyrainin,SoftwareType,DateUTC
2013-06-25 00:02:00,73.5,18.0,29.66,WNW,284,0.0,0.0,12,0.00,,,0.00,weatherlink.com 1.10,2013-06-25 06:02:00,
2013-06-25 00:17:00,72.1,20.0,29.66,WNW,284,0.0,3.0,14,0.00,,,0.00,weatherlink.com 1.10,2013-06-25 06:17:00,
2013-06-25 00:32:00,71.3,21.0,29.67,West,280,0.0,9.0,15,0.00,,,0.00,weatherlink.com 1.10,2013-06-25 06:32:00,
2013-06-25 00:47:00,70.8,21.0,29.67,West,281,0.0,1.0,15,0.00,,,0.00,weatherlink.com 1.10,2013-06-25 06:47:00,
2013-06-25 01:03:00,70.4,20.0,29.67,West,281,0.0,2.0,15,0.00,,,0.00,weatherlink.com 1.10,2013-06-25 07:03:00,
2013-06-25 01:18:00,70.4,20.0,29.67,West,281,0.0,2.0,15,0.00,,,0.00,weatherlink.com 1.10,2013-06-25 07:18:00,
2013-06-25 01:33:00,69.9,20.0,29.67,SE,128,0.0,5.0,15,0.00,,,0.00,weatherlink.com 1.10,2013-06-25 07:33:00,
2013-06-25 01:48:00,69.6,21.0,29.67,SE,130,0.0,2.0,16,0.00,,,0.00,weatherlink.com 1.10,2013-06-25 07:48:00,
2013-06-25 02:03:00,68.6,21.0,29.68,SE,128,4.0,4.0,16,0.00,,,0.00,weatherlink.com 1.10,2013-06-25 08:03:00,
2013-06-25 02:18:00,68.8,23.0,29.69,East,92,2.0,5.0,18,0.00,,,0.00,weatherlink.com 1.10,2013-06-25 08:18:00,
2013-06-25 02:33:00,68.3,23.0,29.69,East,90,0.0,6.0,18,0.00,,,0.00,weatherlink.com 1.10,2013-06-25 08:33:00,
2013-06-25 02:48:00,68.2,22.0,29.69,East,98,1.0,6.0,17,0.00,,,0.00,weatherlink.com 1.10,2013-06-25 08:48:00,
2013-06-25 03:03:00,67.0,22.0,29.69,ENE,75,2.0,7.0,18,0.00,,,0.00,weatherlink.com 1.10,2013-06-25 09:03:00,
2013-06-25 03:18:00,67.2,22.0,29.70,East,100,1.0,6.0,18,0.00,,,0.00,weatherlink.com 1.10,2013-06-25 09:18:00,
2013-06-25 03:33:00,68.1,22.0,29.70,SE,129,0.0,6.0,17,0.00,,,0.00,weatherlink.com 1.10,2013-06-25 09:33:00,
2013-06-25 03:48:00,66.3,24.0,29.70,SE,129,0.0,3.0,20,0.00,,,0.00,weatherlink.com 1.10,2013-06-25 09:48:00,
2013-06-25 04:18:00,63.1,23.0,29.71,NNW,336,1.0,3.0,22,0.00,,,0.00,weatherlink.com 1.10,2013-06-25 10:18:00,
2013-06-25 04:33:00,61.9,25.0,29.72,WNW,288,0.0,7.0,24,0.00,,,0.00,weatherlink.com 1.10,2013-06-25 10:33:00,
2013-06-25 04:48:00,60.7,25.0,29.72,WNW,288,0.0,3.0,26,0.00,,,0.00,weatherlink.com 1.10,2013-06-25 10:48:00,
2013-06-25 05:03:00,59.6,24.0,29.73,WNW,288,0.0,3.0,26,0.00,,,0.00,weatherlink.com 1.10,2013-06-25 11:03:00,
2013-06-25 05:18:00,58.5,26.0,29.73,WNW,289,3.0,4.0,29,0.00,,,0.00,weatherlink.com 1.10,2013-06-25 11:18:00,
2013-06-25 05:33:00,57.7,27.0,29.74,WNW,288,5.0,5.0,31,0.00,,,0.00,weatherlink.com 1.10,2013-06-25 11:33:00,
2013-06-25 05:48:00,56.8,26.0,29.75,WNW,288,1.0,4.0,31,0.00,,,0.00,weatherlink.com 1.10,2013-06-25 11:48:00,
2013-06-25 06:03:00,56.4,27.0,29.76,WNW,288,1.0,3.0,32,0.00,,,0.00,weatherlink.com 1.10,2013-06-25 12:03:00,
2013-06-25 06:18:00,55.6,27.0,29.76,WNW,288,0.0,3.0,33,0.00,,,0.00,weatherlink.com 1.10,2013-06-25 12:18:00,
2013-06-25 06:33:00,55.4,29.0,29.77,WNW,288,0.0,4.0,36,0.00,,,0.00,weatherlink.com 1.10,2013-06-25 12:33:00,
2013-06-25 06:48:00,55.9,28.0,29.77,WNW,288,0.0,1.0,35,0.00,,,0.00,weatherlink.com 1.10,2013-06-25 12:48:00,
2013-06-25 07:04:00,58.9,32.0,29.78,WNW,288,0.0,3.0,37,0.00,,,0.00,weatherlink.com 1.10,2013-06-25 13:04:00,
2013-06-25 07:19:00,62.9,31.0,29.78,WNW,290,0.0,1.0,30,0.00,,,0.00,weatherlink.com 1.10,2013-06-25 13:19:00,
2013-06-25 07:34:00,66.4,31.0,29.79,WNW,288,2.0,5.0,27,0.00,,,0.00,weatherlink.com 1.10,2013-06-25 13:34:00,
2013-06-25 07:49:00,68.6,29.0,29.79,WNW,290,0.0,3.0,23,0.00,,,0.00,weatherlink.com 1.10,2013-06-25 13:49:00,
2013-06-25 08:01:00,71.5,30.6,29.79,WNW,289,0.0,0.0,22,0.00,,,0.00,Wunderground v.1.15,2013-06-25 14:01:00,
2013-06-25 08:07:00,72.6,30.4,29.79,WNW,288,0.0,0.0,21,0.00,,,0.00,Wunderground v.1.15,2013-06-25 14:07:00,
2013-06-25 08:16:00,74.0,27.8,29.79,WNW,288,3.0,3.0,18,0.00,,,0.00,Wunderground v.1.15,2013-06-25 14:16:00,
2013-06-25 08:21:00,74.5,26.8,29.79,WNW,288,0.0,1.0,17,0.00,,,0.00,Wunderground v.1.15,2013-06-25 14:21:00,
2013-06-25 08:27:00,75.4,22.8,29.79,WNW,288,2.0,3.0,14,0.00,,,0.00,Wunderground v.1.15,2013-06-25 14:27:00,
2013-06-25 08:33:00,75.6,24.7,29.79,WNW,288,4.0,4.0,15,0.00,,,0.00,Wunderground v.1.15,2013-06-25 14:33:00,
2013-06-25 08:38:00,75.5,24.6,29.79,WNW,288,0.0,5.0,15,0.00,,,0.00,Wunderground v.1.15,2013-06-25 14:38:00,
2013-06-25 08:43:00,75.4,24.5,29.79,WNW,288,0.0,2.0,15,0.00,,,0.00,Wunderground v.1.15,2013-06-25 14:43:00,
2013-06-25 08:48:00,75.7,23.1,29.80,WNW,288,0.0,2.0,14,0.00,,,0.00,Wunderground v.1.15,2013-06-25 14:48:00,
2013-06-25 08:53:00,76.1,23.4,29.80,WNW,289,1.0,4.0,14,0.00,,,0.00,Wunderground v.1.15,2013-06-25 14:53:00,
2013-06-25 08:58:00,76.4,25.3,29.80,WNW,289,1.0,4.0,15,0.00,,,0.00,Wunderground v.1.15,2013-06-25 14:58:00,
2013-06-25 09:03:00,77.1,24.2,29.79,WNW,288,0.0,2.0,14,0.00,,,0.00,Wunderground v.1.15,2013-06-25 15:03:00,
2013-06-25 09:08:00,77.7,24.7,29.79,WNW,289,0.0,2.0,14,0.00,,,0.00,Wunderground v.1.15,2013-06-25 15:08:00,
2013-06-25 09:13:00,78.3,25.1,29.79,WNW,289,0.0,1.0,14,0.00,,,0.00,Wunderground v.1.15,2013-06-25 15:13:00,
2013-06-25 09:18:00,78.6,25.4,29.79,WNW,288,0.0,2.0,14,0.00,,,0.00,Wunderground v.1.15,2013-06-25 15:18:00,
2013-06-25 09:23:00,79.0,23.9,29.79,WNW,288,0.0,1.0,13,0.00,,,0.00,Wunderground v.1.15,2013-06-25 15:23:00,
2013-06-25 09:28:00,78.9,25.6,29.79,WNW,289,0.0,1.0,14,0.00,,,0.00,Wunderground v.1.15,2013-06-25 15:28:00,
2013-06-25 09:33:00,79.2,24.1,29.79,SW,223,4.0,5.0,13,0.00,,,0.00,Wunderground v.1.15,2013-06-25 15:33:00,
2013-06-25 09:38:00,79.0,25.7,29.79,SW,224,2.0,5.0,14,0.00,,,0.00,Wunderground v.1.15,2013-06-25 15:38:00,
2013-06-25 09:43:00,78.8,25.5,29.79,SW,215,6.0,6.0,14,0.00,,,0.00,Wunderground v.1.15,2013-06-25 15:43:00,
2013-06-25 09:48:00,78.7,25.5,29.79,SW,215,3.0,6.0,14,0.00,,,0.00,Wunderground v.1.15,2013-06-25 15:48:00,
2013-06-25 09:53:00,78.9,25.6,29.78,SSW,198,3.0,7.0,14,0.00,,,0.00,Wunderground v.1.15,2013-06-25 15:53:00,
2013-06-25 09:58:00,79.1,25.8,29.78,SSW,197,2.0,7.0,14,0.00,,,0.00,Wunderground v.1.15,2013-06-25 15:58:00,
2013-06-25 10:03:00,79.4,26.0,29.78,SSW,201,6.0,7.0,14,0.00,,,0.00,Wunderground v.1.15,2013-06-25 16:03:00,
2013-06-25 10:08:00,79.7,26.3,29.79,WSW,254,3.0,7.0,14,0.00,,,0.00,Wunderground v.1.15,2013-06-25 16:08:00,
2013-06-25 10:14:00,79.9,24.6,29.79,SSW,206,3.0,8.0,13,0.00,,,0.00,Wunderground v.1.15,2013-06-25 16:14:00,
2013-06-25 10:19:00,80.3,26.7,29.79,WSW,253,1.0,9.0,14,0.00,,,0.00,Wunderground v.1.15,2013-06-25 16:19:00,
2013-06-25 10:24:00,80.9,27.2,29.79,WSW,238,6.0,8.0,14,0.00,,,0.00,Wunderground v.1.15,2013-06-25 16:24:00,
2013-06-25 10:29:00,81.4,27.6,29.79,WSW,248,6.0,12.0,14,0.00,,,0.00,Wunderground v.1.15,2013-06-25 16:29:00,
2013-06-25 10:34:00,81.9,28.0,29.79,SW,228,4.0,5.0,14,0.00,,,0.00,Wunderground v.1.15,2013-06-25 16:34:00,
2013-06-25 10:39:00,82.2,28.2,29.79,SSW,199,6.0,12.0,14,0.00,,,0.00,Wunderground v.1.15,2013-06-25 16:39:00,
2013-06-25 10:44:00,82.1,26.4,29.78,SW,225,2.0,6.0,13,0.00,,,0.00,Wunderground v.1.15,2013-06-25 16:44:00,
2013-06-25 10:49:00,82.6,26.7,29.79,South,173,8.0,8.0,13,0.00,,,0.00,Wunderground v.1.15,2013-06-25 16:49:00,
2013-06-25 10:54:00,82.9,28.8,29.79,SW,235,6.0,10.0,14,0.00,,,0.00,Wunderground v.1.15,2013-06-25 16:54:00,
2013-06-25 10:59:00,83.0,27.1,29.79,SW,221,5.0,10.0,13,0.00,,,0.00,Wunderground v.1.15,2013-06-25 16:59:00,
2013-06-25 11:04:00,82.9,27.0,29.78,SSW,200,4.0,7.0,13,0.00,,,0.00,Wunderground v.1.15,2013-06-25 17:04:00,
2013-06-25 11:09:00,83.1,28.9,29.78,South,178,5.0,8.0,14,0.00,,,0.00,Wunderground v.1.15,2013-06-25 17:09:00,
2013-06-25 11:14:00,83.4,27.4,29.78,SW,221,2.0,7.0,13,0.00,,,0.00,Wunderground v.1.15,2013-06-25 17:14:00,
2013-06-25 11:19:00,83.7,27.6,29.78,SW,219,7.0,9.0,13,0.00,,,0.00,Wunderground v.1.15,2013-06-25 17:19:00,
2013-06-25 11:24:00,84.1,27.9,29.78,SW,230,7.0,10.0,13,0.00,,,0.00,Wunderground v.1.15,2013-06-25 17:24:00,
2013-06-25 11:29:00,84.3,28.1,29.78,WSW,242,0.0,10.0,13,0.00,,,0.00,Wunderground v.1.15,2013-06-25 17:29:00,
2013-06-25 11:34:00,84.7,26.4,29.77,WSW,241,2.0,5.0,12,0.00,,,0.00,Wunderground v.1.15,2013-06-25 17:34:00,
2013-06-25 11:39:00,85.6,27.1,29.77,SW,222,6.0,10.0,12,0.00,,,0.00,Wunderground v.1.15,2013-06-25 17:39:00,
2013-06-25 11:44:00,86.3,25.6,29.77,SSE,150,3.0,12.0,11,0.00,,,0.00,Wunderground v.1.15,2013-06-25 17:44:00,
2013-06-25 11:49:00,86.8,28.1,29.77,WSW,241,5.0,12.0,12,0.00,,,0.00,Wunderground v.1.15,2013-06-25 17:49:00,
2013-06-25 11:54:00,87.0,26.1,29.77,WSW,240,0.0,7.0,11,0.00,,,0.00,Wunderground v.1.15,2013-06-25 17:54:00,
2013-06-25 11:59:00,87.6,24.3,29.77,WSW,240,6.0,9.0,10,0.00,,,0.00,Wunderground v.1.15,2013-06-25 17:59:00,
2013-06-25 12:04:00,87.4,26.4,29.76,SW,236,3.0,9.0,11,0.00,,,0.00,Wunderground v.1.15,2013-06-25 18:04:00,
2013-06-25 12:09:00,87.3,26.4,29.76,SSW,204,2.0,11.0,11,0.00,,,0.00,Wunderground v.1.15,2013-06-25 18:09:00,
2013-06-25 12:14:00,87.5,24.2,29.76,SSW,193,4.0,7.0,10,0.00,,,0.00,Wunderground v.1.15,2013-06-25 18:14:00,
2013-06-25 12:19:00,86.8,26.0,29.76,SE,141,5.0,7.0,11,0.00,,,0.00,Wunderground v.1.15,2013-06-25 18:19:00,
2013-06-25 12:24:00,86.6,23.5,29.76,ESE,123,3.0,4.0,10,0.00,,,0.00,Wunderground v.1.15,2013-06-25 18:24:00,
2013-06-25 12:29:00,86.4,25.7,29.75,North,5,0.0,6.0,11,0.00,,,0.00,Wunderground v.1.15,2013-06-25 18:29:00,
2013-06-25 12:34:00,86.9,26.0,29.75,SSE,165,3.0,7.0,11,0.00,,,0.00,Wunderground v.1.15,2013-06-25 18:34:00,
2013-06-25 12:40:00,87.8,26.7,29.75,NW,309,5.0,8.0,11,0.00,,,0.00,Wunderground v.1.15,2013-06-25 18:40:00,
2013-06-25 12:45:00,88.6,25.0,29.75,SSW,201,3.0,10.0,10,0.00,,,0.00,Wunderground v.1.15,2013-06-25 18:45:00,
2013-06-25 12:50:00,88.7,25.1,29.75,WNW,282,5.0,11.0,10,0.00,,,0.00,Wunderground v.1.15,2013-06-25 18:50:00,
2013-06-25 12:55:00,89.2,25.5,29.75,SSW,197,5.0,12.0,10,0.00,,,0.00,Wunderground v.1.15,2013-06-25 18:55:00,
2013-06-25 13:01:00,89.8,26.0,29.75,West,267,6.0,7.0,10,0.00,,,0.00,Wunderground v.1.15,2013-06-25 19:01:00,
2013-06-25 13:06:00,90.2,26.3,29.74,WSW,239,1.0,9.0,10,0.00,,,0.00,Wunderground v.1.15,2013-06-25 19:06:00,
2013-06-25 13:11:00,90.6,26.6,29.74,SW,236,7.0,9.0,10,0.00,,,0.00,Wunderground v.1.15,2013-06-25 19:11:00,
2013-06-25 13:16:00,90.6,24.0,29.74,ESE,123,3.0,11.0,9,0.00,,,0.00,Wunderground v.1.15,2013-06-25 19:16:00,
2013-06-25 13:21:00,89.6,25.8,29.74,WNW,286,6.0,8.0,10,0.00,,,0.00,Wunderground v.1.15,2013-06-25 19:21:00,
2013-06-25 13:26:00,90.1,26.2,29.74,WNW,295,8.0,14.0,10,0.00,,,0.00,Wunderground v.1.15,2013-06-25 19:26:00,
2013-06-25 13:31:00,90.1,26.2,29.74,WSW,244,4.0,6.0,10,0.00,,,0.00,Wunderground v.1.15,2013-06-25 19:31:00,
2013-06-25 13:36:00,89.8,26.0,29.73,NNW,347,8.0,10.0,10,0.00,,,0.00,Wunderground v.1.15,2013-06-25 19:36:00,
2013-06-25 13:41:00,90.3,23.8,29.73,NW,306,7.0,9.0,9,0.00,,,0.00,Wunderground v.1.15,2013-06-25 19:41:00,
2013-06-25 13:46:00,90.8,26.7,29.73,NNW,348,10.0,10.0,10,0.00,,,0.00,Wunderground v.1.15,2013-06-25 19:46:00,
2013-06-25 13:52:00,91.1,26.9,29.73,WNW,287,6.0,6.0,10,0.00,,,0.00,Wunderground v.1.15,2013-06-25 19:52:00,
2013-06-25 13:56:00,91.2,27.0,29.73,NW,318,7.0,13.0,10,0.00,,,0.00,Wunderground v.1.15,2013-06-25 19:56:00,
2013-06-25 14:01:00,91.2,24.5,29.73,WSW,242,1.0,7.0,9,0.00,,,0.00,Wunderground v.1.15,2013-06-25 20:01:00,
2013-06-25 14:06:00,90.3,26.3,29.72,ESE,112,4.0,7.0,10,0.00,,,0.00,Wunderground v.1.15,2013-06-25 20:06:00,
2013-06-25 14:12:00,89.6,25.8,29.72,ESE,114,2.0,3.0,10,0.00,,,0.00,Wunderground v.1.15,2013-06-25 20:12:00,
2013-06-25 14:17:00,89.5,28.0,29.71,SSE,148,0.0,6.0,11,0.00,,,0.00,Wunderground v.1.15,2013-06-25 20:17:00,
2013-06-25 14:22:00,90.0,28.4,29.71,SSE,148,0.0,2.0,11,0.00,,,0.00,Wunderground v.1.15,2013-06-25 20:22:00,
2013-06-25 14:27:00,90.9,26.8,29.71,WSW,238,4.0,11.0,10,0.00,,,0.00,Wunderground v.1.15,2013-06-25 20:27:00,
2013-06-25 14:32:00,91.6,24.8,29.71,South,176,4.0,6.0,9,0.00,,,0.00,Wunderground v.1.15,2013-06-25 20:32:00,
2013-06-25 14:37:00,91.3,24.5,29.71,NW,315,8.0,10.0,9,0.00,,,0.00,Wunderground v.1.15,2013-06-25 20:37:00,
2013-06-25 14:42:00,92.0,25.1,29.71,NNW,330,8.0,10.0,9,0.00,,,0.00,Wunderground v.1.15,2013-06-25 20:42:00,
2013-06-25 14:47:00,92.8,25.7,29.71,NNW,329,6.0,10.0,9,0.00,,,0.00,Wunderground v.1.15,2013-06-25 20:47:00,
2013-06-25 14:52:00,92.7,25.6,29.71,NNW,333,6.0,7.0,9,0.00,,,0.00,Wunderground v.1.15,2013-06-25 20:52:00,
2013-06-25 15:13:00,94.5,26.9,29.70,West,270,1.0,3.0,9,0.00,,,0.00,Wunderground v.1.15,2013-06-25 21:13:00,
2013-06-25 15:19:00,94.9,27.2,29.70,West,263,7.0,12.0,9,0.00,,,0.00,Wunderground v.1.15,2013-06-25 21:19:00,
2013-06-25 15:24:00,94.2,26.7,29.69,WSW,246,5.0,6.0,9,0.00,,,0.00,Wunderground v.1.15,2013-06-25 21:24:00,
2013-06-25 15:29:00,94.4,24.0,29.69,SE,142,6.0,9.0,8,0.00,,,0.00,Wunderground v.1.15,2013-06-25 21:29:00,
2013-06-25 15:34:00,94.2,23.9,29.69,ESE,111,2.0,5.0,8,0.00,,,0.00,Wunderground v.1.15,2013-06-25 21:34:00,
2013-06-25 15:39:00,94.2,26.7,29.68,South,188,0.0,5.0,9,0.00,,,0.00,Wunderground v.1.15,2013-06-25 21:39:00,
2013-06-25 15:44:00,95.1,24.5,29.68,South,184,8.0,10.0,8,0.00,,,0.00,Wunderground v.1.15,2013-06-25 21:44:00,
2013-06-25 15:49:00,95.8,25.1,29.68,WSW,251,9.0,16.0,8,0.00,,,0.00,Wunderground v.1.15,2013-06-25 21:49:00,
2013-06-25 15:54:00,95.7,25.0,29.68,SW,229,5.0,9.0,8,0.00,,,0.00,Wunderground v.1.15,2013-06-25 21:54:00,
2013-06-25 15:59:00,95.4,24.8,29.68,WSW,250,6.0,11.0,8,0.00,,,0.00,Wunderground v.1.15,2013-06-25 21:59:00,
2013-06-25 16:04:00,95.6,24.9,29.67,West,281,7.0,8.0,8,0.00,,,0.00,Wunderground v.1.15,2013-06-25 22:04:00,
2013-06-25 16:09:00,95.7,25.0,29.68,WSW,249,7.0,16.0,8,0.00,,,0.00,Wunderground v.1.15,2013-06-25 22:09:00,
2013-06-25 16:14:00,95.9,26.0,29.67,SSW,201,9.0,16.0,8,0.00,,,0.00,weatherlink.com 1.10,2013-06-25 22:14:00,
2013-06-25 16:31:00,96.0,22.0,29.66,East,86,2.0,9.0,7,0.00,,,0.00,weatherlink.com 1.10,2013-06-25 22:31:00,
2013-06-25 16:46:00,95.8,26.0,29.66,WSW,248,7.0,16.0,8,0.00,,,0.00,weatherlink.com 1.10,2013-06-25 22:46:00,
2013-06-25 17:01:00,97.0,23.0,29.66,WSW,238,13.0,23.0,7,0.00,,,0.00,weatherlink.com 1.10,2013-06-25 23:01:00,
2013-06-25 17:16:00,95.9,22.0,29.65,West,274,6.0,12.0,7,0.00,,,0.00,weatherlink.com 1.10,2013-06-25 23:16:00,
2013-06-25 17:31:00,96.5,26.0,29.65,SW,227,9.0,9.0,8,0.00,,,0.00,weatherlink.com 1.10,2013-06-25 23:31:00,
2013-06-25 17:46:00,96.9,23.0,29.64,SSW,192,7.0,13.0,7,0.00,,,0.00,weatherlink.com 1.10,2013-06-25 23:46:00,
2013-06-25 18:01:00,96.2,23.0,29.64,WNW,286,5.0,11.0,7,0.00,,,0.00,weatherlink.com 1.10,2013-06-26 00:01:00,
2013-06-25 18:16:00,95.7,22.0,29.64,West,261,6.0,15.0,7,0.00,,,0.00,weatherlink.com 1.10,2013-06-26 00:16:00,
2013-06-25 18:22:00,95.1,21.4,29.64,West,270,6.0,8.0,7,0.00,,,0.00,Wunderground v.1.15,2013-06-26 00:22:00,
2013-06-25 18:27:00,94.8,21.1,29.63,SSE,167,6.0,6.0,7,0.00,,,0.00,Wunderground v.1.15,2013-06-26 00:27:00,
2013-06-25 18:33:00,94.2,23.9,29.64,WNW,286,7.0,13.0,8,0.00,,,0.00,Wunderground v.1.15,2013-06-26 00:33:00,
2013-06-25 18:41:00,94.3,24.0,29.64,WSW,240,1.0,8.0,8,0.00,,,0.00,Wunderground v.1.15,2013-06-26 00:41:00,
2013-06-25 18:46:00,94.5,24.1,29.64,SSW,207,4.0,8.0,8,0.00,,,0.00,Wunderground v.1.15,2013-06-26 00:46:00,
2013-06-25 18:51:00,94.6,24.2,29.64,SW,232,5.0,12.0,8,0.00,,,0.00,Wunderground v.1.15,2013-06-26 00:51:00,
2013-06-25 18:56:00,94.6,24.2,29.64,WSW,246,9.0,12.0,8,0.00,,,0.00,Wunderground v.1.15,2013-06-26 00:56:00,
2013-06-25 18:57:00,94.5,24.1,29.64,WSW,241,7.0,12.0,8,0.00,,,0.00,Wunderground v.1.15,2013-06-26 00:57:00,
2013-06-25 19:02:00,94.0,23.7,29.64,West,262,7.0,10.0,8,0.00,,,0.00,Wunderground v.1.15,2013-06-26 01:02:00,
2013-06-25 19:07:00,93.4,23.3,29.64,WSW,250,7.0,13.0,8,0.00,,,0.00,Wunderground v.1.15,2013-06-26 01:07:00,
2013-06-25 19:12:00,93.0,23.0,29.64,SSW,213,10.0,14.0,8,0.00,,,0.00,Wunderground v.1.15,2013-06-26 01:12:00,
2013-06-25 19:17:00,92.5,22.6,29.64,West,271,6.0,14.0,8,0.00,,,0.00,Wunderground v.1.15,2013-06-26 01:17:00,
2013-06-25 19:22:00,92.1,25.1,29.64,SW,236,3.0,7.0,9,0.00,,,0.00,Wunderground v.1.15,2013-06-26 01:22:00,
2013-06-25 19:27:00,91.7,22.0,29.64,West,263,7.0,12.0,8,0.00,,,0.00,Wunderground v.1.15,2013-06-26 01:27:00,
2013-06-25 19:33:00,91.5,24.7,29.64,WSW,240,9.0,9.0,9,0.00,,,0.00,Wunderground v.1.15,2013-06-26 01:33:00,
2013-06-25 19:38:00,91.3,24.5,29.64,WSW,251,5.0,12.0,9,0.00,,,0.00,Wunderground v.1.15,2013-06-26 01:38:00,
2013-06-25 19:43:00,91.0,24.3,29.64,WNW,286,5.0,7.0,9,0.00,,,0.00,Wunderground v.1.15,2013-06-26 01:43:00,
2013-06-25 19:48:00,90.6,24.0,29.64,WSW,245,3.0,9.0,9,0.00,,,0.00,Wunderground v.1.15,2013-06-26 01:48:00,
2013-06-25 19:53:00,90.4,23.9,29.64,WSW,253,4.0,7.0,9,0.00,,,0.00,Wunderground v.1.15,2013-06-26 01:53:00,
2013-06-25 19:58:00,90.1,23.6,29.64,West,260,6.0,9.0,9,0.00,,,0.00,Wunderground v.1.15,2013-06-26 01:58:00,
2013-06-25 20:03:00,89.9,23.5,29.64,WSW,237,4.0,5.0,9,0.00,,,0.00,Wunderground v.1.15,2013-06-26 02:03:00,
2013-06-25 20:08:00,89.5,25.7,29.65,West,275,4.0,8.0,10,0.00,,,0.00,Wunderground v.1.15,2013-06-26 02:08:00,
2013-06-25 20:13:00,89.2,25.5,29.64,WSW,258,2.0,8.0,10,0.00,,,0.00,Wunderground v.1.15,2013-06-26 02:13:00,
2013-06-25 20:18:00,88.8,22.7,29.65,West,274,5.0,8.0,9,0.00,,,0.00,Wunderground v.1.15,2013-06-26 02:18:00,
2013-06-25 20:23:00,88.3,27.1,29.65,NW,314,2.0,6.0,11,0.00,,,0.00,Wunderground v.1.15,2013-06-26 02:23:00,
2013-06-25 20:28:00,87.5,28.6,29.65,NNW,334,2.0,6.0,12,0.00,,,0.00,Wunderground v.1.15,2013-06-26 02:28:00,
2013-06-25 20:33:00,86.6,27.9,29.65,NNW,341,2.0,4.0,12,0.00,,,0.00,Wunderground v.1.15,2013-06-26 02:33:00,
2013-06-25 20:38:00,85.8,27.3,29.65,NNW,342,3.0,4.0,12,0.00,,,0.00,Wunderground v.1.15,2013-06-26 02:38:00,
2013-06-25 20:43:00,85.0,28.6,29.65,NNW,341,0.0,2.0,13,0.00,,,0.00,Wunderground v.1.15,2013-06-26 02:43:00,
2013-06-25 20:48:00,84.2,28.0,29.65,NNW,342,1.0,2.0,13,0.00,,,0.00,Wunderground v.1.15,2013-06-26 02:48:00,
2013-06-25 20:53:00,83.4,27.4,29.65,NNW,341,0.0,3.0,13,0.00,,,0.00,Wunderground v.1.15,2013-06-26 02:53:00,
2013-06-25 20:58:00,82.6,28.6,29.66,NNW,341,0.0,3.0,14,0.00,,,0.00,Wunderground v.1.15,2013-06-26 02:58:00,
2013-06-25 21:03:00,82.1,29.8,29.66,NNW,342,0.0,1.0,15,0.00,,,0.00,Wunderground v.1.15,2013-06-26 03:03:00,
2013-06-25 21:09:00,81.3,28.0,29.66,NNW,342,1.0,1.0,14,0.00,,,0.00,weatherlink.com 1.10,2013-06-26 03:09:00,
2013-06-25 21:26:00,79.1,31.0,29.67,NNW,341,1.0,1.0,17,0.00,,,0.00,weatherlink.com 1.10,2013-06-26 03:26:00,
2013-06-25 21:41:00,77.4,29.0,29.67,NNW,342,0.0,4.0,17,0.00,,,0.00,weatherlink.com 1.10,2013-06-26 03:41:00,
2013-06-25 21:56:00,76.2,31.0,29.68,NNW,341,1.0,4.0,19,0.00,,,0.00,weatherlink.com 1.10,2013-06-26 03:56:00,
2013-06-25 22:11:00,75.4,32.0,29.69,NW,325,0.0,6.0,20,0.00,,,0.00,weatherlink.com 1.10,2013-06-26 04:11:00,
2013-06-25 22:26:00,74.6,31.0,29.69,NW,324,0.0,1.0,20,0.00,,,0.00,weatherlink.com 1.10,2013-06-26 04:26:00,
2013-06-25 22:41:00,73.7,31.0,29.69,NW,324,0.0,0.0,21,0.00,,,0.00,weatherlink.com 1.10,2013-06-26 04:41:00,
2013-06-25 22:56:00,72.7,30.0,29.69,NW,325,0.0,0.0,21,0.00,,,0.00,weatherlink.com 1.10,2013-06-26 04:56:00,
2013-06-25 23:11:00,71.5,29.0,29.69,NW,324,0.0,4.0,21,0.00,,,0.00,weatherlink.com 1.10,2013-06-26 05:11:00,
2013-06-25 23:26:00,70.4,32.0,29.70,NW,325,0.0,1.0,24,0.00,,,0.00,weatherlink.com 1.10,2013-06-26 05:26:00,
2013-06-25 23:41:00,69.5,32.0,29.70,NW,325,0.0,0.0,25,0.00,,,0.00,weatherlink.com 1.10,2013-06-26 05:41:00,
2013-06-25 23:56:00,68.8,32.0,29.71,NW,325,0.0,0.0,26,0.00,,,0.00,weatherlink.com 1.10,2013-06-26 05:56:00,